createdAt,value
2022-11-04T00:01:47.256Z,63.60
2022-11-04T00:04:17.526Z,63.60
2022-11-04T00:06:44.677Z,63.50
2022-11-04T00:09:19.287Z,63.10
2022-11-04T00:12:05.125Z,62.80
2022-11-04T00:14:33.186Z,62.30
2022-11-04T00:17:19.583Z,62.10
2022-11-04T00:20:06.588Z,61.90
2022-11-04T00:22:52.608Z,62.00
2022-11-04T00:25:38.182Z,62.10
2022-11-04T00:28:33.991Z,61.80
2022-11-04T00:31:22.334Z,61.60
2022-11-04T00:33:51.448Z,61.70
2022-11-04T00:36:18.778Z,61.60
2022-11-04T00:38:45.854Z,61.60
2022-11-04T00:41:29.058Z,61.50
2022-11-04T00:43:57.827Z,61.60
2022-11-04T00:46:25.183Z,61.80
2022-11-04T00:48:52.184Z,61.40
2022-11-04T00:51:19.992Z,61.40
2022-11-04T00:53:46.922Z,61.30
2022-11-04T00:56:13.709Z,61.30
2022-11-04T00:58:40.525Z,61.20
2022-11-04T01:01:09.952Z,61.30
2022-11-04T01:03:37.069Z,61.50
2022-11-04T01:06:05.151Z,61.60
2022-11-04T01:08:32.089Z,62.30
2022-11-04T01:11:06.192Z,63.20
2022-11-04T01:13:33.174Z,64.20
2022-11-04T01:16:07.172Z,64.80
2022-11-04T01:18:34.549Z,65.60
2022-11-04T01:21:07.522Z,66.20
2022-11-04T01:23:35.577Z,67.00
2022-11-04T01:26:06.422Z,67.40
2022-11-04T01:28:33.227Z,68.10
2022-11-04T01:31:06.045Z,68.80
2022-11-04T01:33:32.985Z,68.60
2022-11-04T01:36:01.445Z,69.20
2022-11-04T01:38:29.169Z,69.70
2022-11-04T01:40:56.177Z,70.00
2022-11-04T01:43:23.881Z,70.30
2022-11-04T01:46:01.313Z,70.60
2022-11-04T01:48:34.558Z,71.40
2022-11-04T01:51:01.605Z,71.80
2022-11-04T01:53:37.501Z,71.80
2022-11-04T01:56:12.088Z,72.10
2022-11-04T01:58:51.748Z,72.40
2022-11-04T02:01:19.700Z,72.50
2022-11-04T02:03:54.362Z,72.70
2022-11-04T02:06:22.757Z,72.90
2022-11-04T02:08:49.654Z,73.10
2022-11-04T02:11:36.658Z,73.10
2022-11-04T02:14:03.618Z,73.30
2022-11-04T02:16:45.147Z,73.30
2022-11-04T02:19:17.485Z,73.40
2022-11-04T02:22:25.410Z,73.70
2022-11-04T02:25:33.401Z,73.50
2022-11-04T02:28:40.878Z,73.30
2022-11-04T02:31:53.175Z,73.00
2022-11-04T02:34:46.736Z,73.10
2022-11-04T02:37:35.168Z,72.90
2022-11-04T02:40:41.483Z,73.50
2022-11-04T02:43:46.031Z,73.20
2022-11-04T02:46:24.445Z,73.00
2022-11-04T02:49:04.036Z,73.80
2022-11-04T02:51:43.564Z,73.80
2022-11-04T02:54:28.584Z,73.70
2022-11-04T02:57:01.303Z,73.90
2022-11-04T02:59:49.780Z,74.20
2022-11-04T03:02:24.242Z,73.90
2022-11-04T03:04:53.762Z,74.30
2022-11-04T03:07:29.172Z,74.50
2022-11-04T03:10:04.682Z,74.30
2022-11-04T03:12:45.792Z,73.90
2022-11-04T03:15:24.202Z,73.90
2022-11-04T03:18:15.583Z,73.80
2022-11-04T03:20:46.608Z,74.00
2022-11-04T03:23:14.336Z,74.00
2022-11-04T03:25:50.249Z,74.00
2022-11-04T03:28:46.012Z,73.90
2022-11-04T03:31:32.570Z,74.10
2022-11-04T03:33:59.448Z,73.40
2022-11-04T03:36:28.245Z,73.80
2022-11-04T03:38:55.356Z,73.90
2022-11-04T03:41:46.551Z,73.80
2022-11-04T03:44:13.652Z,72.80
2022-11-04T03:46:41.227Z,73.90
2022-11-04T03:49:09.818Z,73.80
2022-11-04T03:51:36.631Z,73.90
2022-11-04T03:54:04.589Z,74.00
2022-11-04T03:57:16.175Z,74.00
2022-11-04T04:00:10.085Z,72.80
2022-11-04T04:03:12.579Z,73.10
2022-11-04T04:06:03.781Z,73.90
2022-11-04T04:09:00.928Z,73.50
2022-11-04T04:11:45.294Z,73.30
2022-11-04T04:14:41.331Z,73.70
2022-11-04T04:17:39.695Z,73.20
2022-11-04T04:20:14.594Z,72.60
2022-11-04T04:22:47.416Z,74.20
2022-11-04T04:25:35.452Z,74.10
2022-11-04T04:28:04.188Z,74.30
2022-11-04T04:30:31.642Z,74.30
2022-11-04T04:33:06.612Z,74.30
2022-11-04T04:35:52.976Z,74.30
2022-11-04T04:38:46.784Z,74.40
2022-11-04T04:41:47.368Z,73.90
2022-11-04T04:44:47.268Z,73.40
2022-11-04T04:47:24.978Z,72.70
2022-11-04T04:50:00.276Z,72.50
2022-11-04T04:52:56.773Z,73.30
2022-11-04T04:55:23.596Z,71.50
2022-11-04T04:57:50.367Z,73.90
2022-11-04T05:00:20.852Z,73.90
2022-11-04T05:02:49.479Z,73.50
2022-11-04T05:05:17.376Z,73.60
2022-11-04T05:07:44.283Z,73.70
2022-11-04T05:10:14.249Z,73.60
2022-11-04T05:13:00.345Z,73.30
2022-11-04T05:15:29.524Z,73.10
2022-11-04T05:17:59.152Z,73.60
2022-11-04T05:20:27.300Z,72.90
2022-11-04T05:22:55.083Z,72.80
2022-11-04T05:25:21.992Z,72.70
2022-11-04T05:27:48.807Z,72.90
2022-11-04T05:30:15.719Z,73.00
2022-11-04T05:32:42.543Z,72.90
2022-11-04T05:35:11.974Z,72.90
2022-11-04T05:37:38.775Z,72.90
2022-11-04T05:40:06.509Z,73.20
2022-11-04T05:42:33.345Z,73.10
2022-11-04T05:45:00.097Z,73.10
2022-11-04T05:47:26.988Z,73.10
2022-11-04T05:49:53.774Z,73.20
2022-11-04T05:52:20.619Z,73.30
2022-11-04T05:54:47.877Z,73.50
2022-11-04T05:57:14.748Z,73.40
2022-11-04T05:59:41.703Z,73.50
2022-11-04T06:02:08.754Z,73.50
2022-11-04T06:04:35.682Z,73.80
2022-11-04T06:07:02.475Z,74.10
2022-11-04T06:09:41.484Z,74.10
2022-11-04T06:12:15.148Z,74.30
2022-11-04T06:14:45.150Z,74.00
2022-11-04T06:17:17.536Z,74.10
2022-11-04T06:19:44.659Z,74.10
2022-11-04T06:22:13.998Z,74.30
2022-11-04T06:24:41.378Z,74.30
2022-11-04T06:27:10.111Z,74.20
2022-11-04T06:29:41.701Z,74.30
2022-11-04T06:32:15.167Z,74.40
2022-11-04T06:34:42.195Z,74.30
2022-11-04T06:37:10.062Z,74.30
2022-11-04T06:39:37.594Z,74.40
2022-11-04T06:42:05.173Z,74.50
2022-11-04T06:44:34.391Z,75.00
2022-11-04T06:47:01.793Z,75.50
2022-11-04T06:49:28.707Z,75.60
2022-11-04T06:51:55.552Z,75.90
2022-11-04T06:54:22.347Z,76.10
2022-11-04T06:56:49.498Z,76.20
2022-11-04T06:59:19.534Z,76.30
2022-11-04T07:01:47.500Z,76.60
2022-11-04T07:04:14.573Z,76.70
2022-11-04T07:06:45.037Z,76.90
2022-11-04T07:09:15.023Z,77.20
2022-11-04T07:11:44.134Z,77.40
2022-11-04T07:14:12.357Z,77.70
2022-11-04T07:16:39.583Z,77.90
2022-11-04T07:19:07.087Z,78.10
2022-11-04T07:21:33.893Z,78.30
2022-11-04T07:24:02.148Z,78.60
2022-11-04T07:26:29.012Z,78.90
2022-11-04T07:28:55.901Z,79.00
2022-11-04T07:31:22.762Z,79.10
2022-11-04T07:33:51.405Z,79.30
2022-11-04T07:36:23.425Z,79.30
2022-11-04T07:38:50.286Z,79.30
2022-11-04T07:41:18.342Z,79.60
2022-11-04T07:43:52.196Z,79.70
2022-11-04T07:46:20.627Z,79.70
2022-11-04T07:48:47.874Z,80.20
2022-11-04T07:51:19.269Z,80.40
2022-11-04T07:53:46.862Z,80.30
2022-11-04T07:56:14.217Z,80.50
2022-11-04T07:58:42.222Z,80.00
2022-11-04T08:01:14.628Z,79.70
2022-11-04T08:03:41.670Z,79.70
2022-11-04T08:10:14.902Z,79.10
2022-11-04T08:12:41.729Z,80.40
2022-11-04T08:15:09.116Z,80.70
2022-11-04T08:17:35.887Z,80.80
2022-11-04T08:20:02.905Z,80.70
2022-11-04T08:26:38.683Z,80.40
2022-11-04T08:29:09.218Z,81.20
2022-11-04T08:31:37.466Z,81.20
2022-11-04T08:34:06.090Z,81.30
2022-11-04T08:36:37.292Z,81.30
2022-11-04T08:39:11.219Z,81.20
2022-11-04T08:41:41.941Z,81.10
2022-11-04T08:44:09.197Z,81.30
2022-11-04T08:46:39.623Z,81.40
2022-11-04T08:49:09.691Z,81.50
2022-11-04T08:51:42.352Z,81.30
2022-11-04T08:54:09.632Z,81.00
2022-11-04T08:56:39.899Z,81.20
2022-11-04T08:59:07.113Z,81.50
2022-11-04T09:01:36.749Z,81.40
2022-11-04T09:04:05.448Z,81.30
2022-11-04T09:06:39.934Z,81.40
2022-11-04T09:09:11.521Z,81.00
2022-11-04T09:11:41.538Z,81.20
2022-11-04T09:14:10.920Z,81.20
2022-11-04T09:16:40.211Z,80.80
2022-11-04T09:19:07.481Z,81.10
2022-11-04T09:21:34.394Z,81.70
2022-11-04T09:24:01.281Z,81.80
2022-11-04T09:26:28.412Z,81.60
2022-11-04T09:28:57.878Z,81.80
2022-11-04T09:31:27.861Z,81.80
2022-11-04T09:33:56.163Z,81.40
2022-11-04T09:36:24.099Z,81.30
2022-11-04T09:38:51.132Z,81.40
2022-11-04T09:41:57.698Z,81.40
2022-11-04T09:45:20.139Z,81.20
2022-11-04T09:47:45.609Z,79.70
2022-11-04T09:50:24.341Z,81.70
2022-11-04T09:53:01.588Z,81.50
2022-11-04T09:55:54.381Z,82.00
2022-11-04T09:58:21.595Z,81.20
2022-11-04T10:01:23.108Z,82.40
2022-11-04T10:04:44.745Z,80.70
2022-11-04T10:07:55.680Z,80.70
2022-11-04T10:10:31.462Z,81.20
2022-11-04T10:13:15.131Z,82.80
2022-11-04T10:16:09.132Z,81.80
2022-11-04T10:18:59.511Z,81.00
2022-11-04T10:22:10.590Z,81.30
2022-11-04T10:25:22.239Z,79.70
2022-11-04T10:27:51.953Z,81.20
2022-11-04T10:30:23.049Z,81.90
2022-11-04T10:33:30.256Z,82.50
2022-11-04T10:36:01.374Z,82.60
2022-11-04T10:38:52.454Z,83.90
2022-11-04T10:41:34.338Z,83.10
2022-11-04T10:44:15.893Z,81.50
2022-11-04T10:47:09.774Z,84.00
2022-11-04T10:50:21.880Z,84.90
2022-11-04T10:52:41.828Z,84.10
2022-11-04T10:55:50.737Z,84.30
2022-11-04T10:58:28.059Z,82.70
2022-11-04T11:00:55.444Z,83.90
2022-11-04T11:03:26.988Z,83.30
2022-11-04T11:06:10.239Z,82.50
2022-11-04T11:08:38.101Z,82.30
2022-11-04T11:11:10.692Z,82.30
2022-11-04T11:13:45.021Z,81.90
2022-11-04T11:16:25.490Z,81.90
2022-11-04T11:19:21.493Z,81.90
2022-11-04T11:21:53.984Z,80.70
2022-11-04T11:24:30.842Z,82.40
2022-11-04T11:27:00.935Z,82.40
2022-11-04T11:29:40.171Z,82.30
2022-11-04T11:32:36.968Z,82.10
2022-11-04T11:35:10.668Z,81.30
2022-11-04T11:37:40.662Z,82.30
2022-11-04T11:40:47.464Z,82.20
2022-11-04T11:43:30.719Z,81.20
2022-11-04T11:45:59.488Z,82.30
2022-11-04T11:48:33.038Z,82.50
2022-11-04T11:51:02.660Z,82.70
2022-11-04T11:53:30.182Z,82.50
2022-11-04T11:56:09.583Z,83.00
2022-11-04T12:01:51.925Z,81.10
2022-11-04T12:11:01.534Z,80.40
2022-11-04T12:13:38.269Z,82.10
2022-11-04T12:16:23.015Z,81.70
2022-11-04T12:19:26.184Z,82.00
2022-11-04T12:22:10.375Z,80.60
2022-11-04T12:25:05.127Z,81.70
2022-11-04T12:27:55.087Z,80.30
2022-11-04T12:30:32.341Z,81.20
2022-11-04T12:33:34.916Z,81.90
2022-11-04T12:36:37.482Z,81.20
2022-11-04T12:39:24.581Z,81.30
2022-11-04T12:45:00.676Z,83.40
2022-11-04T12:47:44.825Z,83.40
2022-11-04T12:50:30.203Z,83.40
2022-11-04T12:53:06.462Z,83.70
2022-11-04T12:55:49.841Z,83.70
2022-11-04T12:58:39.107Z,83.20
2022-11-04T13:01:32.053Z,81.90
2022-11-04T13:04:16.886Z,80.80
2022-11-04T13:06:53.171Z,81.40
2022-11-04T13:09:56.694Z,81.80
2022-11-04T13:12:36.369Z,81.20
2022-11-04T13:15:16.386Z,82.00
2022-11-04T13:17:46.152Z,82.90
2022-11-04T13:20:15.538Z,82.90
2022-11-04T13:22:55.679Z,82.50
2022-11-04T13:25:43.074Z,81.80
2022-11-04T13:28:19.550Z,80.40
2022-11-04T13:31:00.584Z,80.80
2022-11-04T13:33:43.520Z,80.40
2022-11-04T13:36:19.617Z,79.50
2022-11-04T13:38:57.666Z,81.50
2022-11-04T13:42:04.977Z,81.70
2022-11-04T13:44:40.672Z,82.00
2022-11-04T13:47:22.336Z,82.30
2022-11-04T13:49:55.328Z,82.10
2022-11-04T13:52:33.511Z,82.70
2022-11-04T13:55:05.590Z,83.00
2022-11-04T13:58:01.452Z,83.40
2022-11-04T14:00:31.732Z,82.90
2022-11-04T14:03:21.423Z,84.00
2022-11-04T14:06:00.045Z,83.00
2022-11-04T14:08:27.210Z,83.60
2022-11-04T14:10:53.897Z,84.20
2022-11-04T14:13:37.520Z,84.20
2022-11-04T14:16:13.882Z,83.50
2022-11-04T14:18:44.037Z,84.00
2022-11-04T14:21:25.625Z,84.00
2022-11-04T14:24:16.355Z,83.90
2022-11-04T14:26:47.272Z,84.10
2022-11-04T14:29:23.976Z,84.60
2022-11-04T14:31:54.886Z,84.50
2022-11-04T14:34:37.569Z,85.00
2022-11-04T14:37:30.482Z,83.80
2022-11-04T14:40:00.517Z,84.50
2022-11-04T14:42:58.316Z,84.50
2022-11-04T14:45:39.479Z,83.90
2022-11-04T14:48:20.610Z,84.40
2022-11-04T14:50:53.037Z,84.30
2022-11-04T14:53:32.337Z,84.60
2022-11-04T14:56:23.752Z,84.50
2022-11-04T14:59:05.572Z,84.30
2022-11-04T15:01:39.034Z,84.70
2022-11-04T15:04:26.872Z,84.60
2022-11-04T15:07:04.957Z,84.50
2022-11-04T15:09:46.879Z,84.50
2022-11-04T15:12:37.131Z,84.80
2022-11-04T15:15:37.742Z,84.80
2022-11-04T15:18:29.026Z,84.30
2022-11-04T15:21:00.528Z,84.30
2022-11-04T15:23:31.499Z,85.00
2022-11-04T15:25:59.899Z,85.10
2022-11-04T15:28:38.237Z,84.80
2022-11-04T15:31:07.422Z,84.60
2022-11-04T15:33:45.431Z,84.70
2022-11-04T15:36:19.918Z,84.10
2022-11-04T15:39:16.914Z,84.20
2022-11-04T15:42:03.871Z,84.00
2022-11-04T15:44:35.028Z,84.30
2022-11-04T15:47:18.326Z,84.20
2022-11-04T15:49:47.461Z,84.30
2022-11-04T15:52:26.497Z,84.30
2022-11-04T15:54:57.869Z,83.90
2022-11-04T15:57:34.967Z,84.10
2022-11-04T16:00:30.482Z,83.70
2022-11-04T16:03:01.889Z,83.40
2022-11-04T16:05:39.825Z,83.70
2022-11-04T16:08:23.675Z,83.80
2022-11-04T16:11:11.535Z,83.60
2022-11-04T16:13:39.323Z,83.70
2022-11-04T16:16:28.093Z,84.20
2022-11-04T16:18:59.110Z,83.90
2022-11-04T16:21:35.922Z,84.20
2022-11-04T16:24:20.280Z,84.00
2022-11-04T16:26:48.621Z,83.70
2022-11-04T16:29:24.838Z,83.50
2022-11-04T16:32:24.153Z,83.40
2022-11-04T16:34:56.516Z,83.10
2022-11-04T16:37:23.400Z,82.90
2022-11-04T16:39:50.181Z,82.90
2022-11-04T16:42:18.021Z,82.80
2022-11-04T16:44:57.492Z,82.80
2022-11-04T16:47:25.870Z,82.80
2022-11-04T16:49:52.696Z,82.70
2022-11-04T16:52:25.528Z,82.70
2022-11-04T16:54:56.109Z,82.70
2022-11-04T16:57:25.680Z,82.70
2022-11-04T16:59:52.506Z,82.70
2022-11-04T17:02:24.318Z,82.90
2022-11-04T17:04:51.450Z,83.10
2022-11-04T17:07:18.373Z,83.30
2022-11-04T17:09:45.575Z,83.60
2022-11-04T17:12:12.742Z,83.90
2022-11-04T17:14:39.844Z,84.20
2022-11-04T17:17:08.170Z,84.30
2022-11-04T17:19:35.133Z,84.80
2022-11-04T17:22:06.014Z,84.40
2022-11-04T17:24:32.806Z,84.20
2022-11-04T17:26:59.910Z,83.90
2022-11-04T17:29:26.802Z,84.10
2022-11-04T17:31:53.935Z,84.40
2022-11-04T17:34:23.708Z,84.50
2022-11-04T17:36:50.540Z,84.70
2022-11-04T17:39:17.288Z,84.70
2022-11-04T17:42:02.261Z,84.80
2022-11-04T17:44:34.835Z,84.70
2022-11-04T17:47:01.821Z,84.40
2022-11-04T17:49:29.448Z,84.50
2022-11-04T17:52:00.558Z,84.50
2022-11-04T17:54:32.426Z,84.40
2022-11-04T17:56:59.377Z,84.30
2022-11-04T17:59:28.391Z,84.30
2022-11-04T18:01:57.092Z,84.50
2022-11-04T18:04:24.072Z,84.50
2022-11-04T18:06:51.543Z,84.70
2022-11-04T18:09:19.073Z,84.80
2022-11-04T18:12:05.213Z,84.80
2022-11-04T18:14:32.476Z,84.80
2022-11-04T18:16:59.736Z,84.50
2022-11-04T18:19:27.546Z,84.50
2022-11-04T18:21:54.560Z,84.30
2022-11-04T18:24:21.672Z,84.30
2022-11-04T18:26:48.596Z,84.40
2022-11-04T18:29:16.685Z,84.50
2022-11-04T18:31:50.040Z,84.60
2022-11-04T18:34:19.759Z,84.70
2022-11-04T18:36:49.783Z,84.80
2022-11-04T18:39:19.532Z,84.70
2022-11-04T18:41:47.061Z,84.60
2022-11-04T18:44:18.448Z,84.70
2022-11-04T18:46:46.267Z,84.40
2022-11-04T18:49:14.910Z,84.20
2022-11-04T18:51:43.321Z,84.00
2022-11-04T18:54:12.092Z,83.60
2022-11-04T18:56:39.568Z,83.60
2022-11-04T18:59:10.303Z,83.70
2022-11-04T19:01:37.868Z,83.90
2022-11-04T19:04:05.290Z,84.10
2022-11-04T19:06:41.480Z,84.20
2022-11-04T19:12:16.928Z,84.00
2022-11-04T19:14:44.175Z,83.80
2022-11-04T19:17:11.080Z,83.50
2022-11-04T19:19:40.082Z,83.40
2022-11-04T19:22:07.409Z,83.40
2022-11-04T19:24:34.434Z,83.40
2022-11-04T19:27:01.255Z,83.30
2022-11-04T19:29:29.436Z,83.40
2022-11-04T19:31:57.780Z,83.40
2022-11-04T19:34:24.946Z,83.30
2022-11-04T19:36:51.883Z,83.40
2022-11-04T19:39:18.710Z,83.30
2022-11-04T19:42:03.852Z,83.30
2022-11-04T19:44:32.292Z,83.20
2022-11-04T19:46:59.113Z,83.10
2022-11-04T19:49:31.036Z,83.00
2022-11-04T19:51:59.237Z,83.00
2022-11-04T19:54:27.199Z,82.90
2022-11-04T19:56:54.296Z,83.00
2022-11-04T19:59:21.292Z,82.90
2022-11-04T20:01:48.445Z,82.90
2022-11-04T20:04:15.420Z,82.80
2022-11-04T20:06:42.442Z,82.80
2022-11-04T20:09:12.953Z,82.70
2022-11-04T20:12:00.264Z,82.70
2022-11-04T20:14:29.143Z,82.70
2022-11-04T20:16:56.055Z,83.20
2022-11-04T20:19:23.633Z,82.80
2022-11-04T20:21:50.860Z,82.90
2022-11-04T20:24:18.550Z,82.90
2022-11-04T20:26:46.998Z,82.90
2022-11-04T20:29:16.153Z,83.00
2022-11-04T20:31:45.092Z,82.90
2022-11-04T20:34:14.411Z,82.90
2022-11-04T20:36:41.833Z,83.00
2022-11-04T20:39:14.435Z,83.00
2022-11-04T20:41:42.454Z,83.10
2022-11-04T20:44:11.752Z,83.10
2022-11-04T20:46:39.980Z,83.30
2022-11-04T20:49:06.925Z,83.30
2022-11-04T20:51:38.366Z,83.30
2022-11-04T20:54:07.141Z,83.40
2022-11-04T20:56:37.785Z,83.40
2022-11-04T20:59:06.189Z,83.30
2022-11-04T21:01:39.427Z,83.30
2022-11-04T21:04:11.502Z,83.20
2022-11-04T21:06:39.679Z,83.10
2022-11-04T21:09:09.925Z,83.00
2022-11-04T21:11:38.956Z,83.10
2022-11-04T21:14:07.442Z,83.10
2022-11-04T21:16:35.691Z,83.00
2022-11-04T21:19:04.715Z,83.50
2022-11-04T21:21:33.193Z,83.00
2022-11-04T21:24:05.981Z,83.10
2022-11-04T21:26:35.670Z,83.20
2022-11-04T21:29:11.051Z,83.40
2022-11-04T21:31:37.947Z,83.50
2022-11-04T21:34:05.432Z,83.70
2022-11-04T21:36:33.201Z,83.80
2022-11-04T21:39:00.443Z,84.10
2022-11-04T21:41:33.349Z,84.30
2022-11-04T21:44:02.993Z,84.50
2022-11-04T21:46:33.727Z,84.50
2022-11-04T21:49:01.008Z,84.60
2022-11-04T21:51:31.866Z,84.40
2022-11-04T21:53:59.273Z,84.40
2022-11-04T21:56:29.830Z,84.40
2022-11-04T21:58:56.657Z,84.30
2022-11-04T22:01:28.146Z,84.40
2022-11-04T22:04:01.307Z,84.50
2022-11-04T22:06:35.702Z,85.00
2022-11-04T22:09:08.912Z,84.70
2022-11-04T22:11:37.319Z,84.90
2022-11-04T22:14:08.106Z,85.10
2022-11-04T22:16:38.821Z,85.20
2022-11-04T22:19:08.333Z,85.40
2022-11-04T22:21:40.144Z,84.80
2022-11-04T22:24:09.591Z,85.20
2022-11-04T22:26:36.633Z,85.50
2022-11-04T22:29:03.810Z,85.70
2022-11-04T22:31:34.408Z,85.80
2022-11-04T22:34:02.983Z,85.90
2022-11-04T22:36:32.013Z,85.90
2022-11-04T22:38:59.626Z,86.00
2022-11-04T22:41:31.480Z,86.00
2022-11-04T22:43:59.379Z,85.70
2022-11-04T22:46:32.981Z,85.30
2022-11-04T22:48:59.834Z,85.00
2022-11-04T22:51:27.330Z,84.80
2022-11-04T22:53:59.985Z,84.70
2022-11-04T22:56:27.220Z,84.70
2022-11-04T22:58:54.604Z,84.90
2022-11-04T23:01:22.081Z,84.90
2022-11-04T23:03:51.781Z,84.90
2022-11-04T23:06:20.773Z,84.90
2022-11-04T23:08:47.791Z,85.10
2022-11-04T23:11:39.099Z,85.20
2022-11-04T23:14:24.677Z,85.10
2022-11-04T23:17:10.773Z,85.10
2022-11-04T23:19:38.884Z,85.10
2022-11-04T23:22:25.727Z,85.10
2022-11-04T23:25:05.630Z,85.20
2022-11-04T23:28:02.685Z,85.30
2022-11-04T23:30:36.866Z,85.30
2022-11-04T23:33:07.572Z,85.40
2022-11-04T23:35:58.878Z,85.60
2022-11-04T23:38:26.646Z,84.90
2022-11-04T23:41:20.039Z,85.70
2022-11-04T23:43:47.117Z,85.80
2022-11-04T23:46:36.539Z,86.00
2022-11-04T23:49:26.628Z,86.10
2022-11-04T23:52:12.152Z,86.10
2022-11-04T23:54:57.570Z,86.10
2022-11-04T23:57:43.154Z,86.10
